createdAt,value
2022-12-19T00:01:59.011Z,69.90
2022-12-19T00:04:27.272Z,62.50
2022-12-19T00:06:58.146Z,59.80
2022-12-19T00:09:27.337Z,66.00
2022-12-19T00:11:55.603Z,68.40
2022-12-19T00:14:23.920Z,70.40
2022-12-19T00:16:52.194Z,71.90
2022-12-19T00:19:20.687Z,66.20
2022-12-19T00:21:49.100Z,61.30
2022-12-19T00:24:21.305Z,59.70
2022-12-19T00:26:50.450Z,60.10
2022-12-19T00:29:18.916Z,67.20
2022-12-19T00:31:47.231Z,69.80
2022-12-19T00:34:15.786Z,72.10
2022-12-19T00:36:44.158Z,73.50
2022-12-19T00:39:12.440Z,67.60
2022-12-19T00:41:42.661Z,62.60
2022-12-19T00:44:14.213Z,60.60
2022-12-19T00:46:43.088Z,59.90
2022-12-19T00:49:15.005Z,66.80
2022-12-19T00:51:43.379Z,70.00
2022-12-19T00:54:11.820Z,72.00
2022-12-19T00:56:40.079Z,74.10
2022-12-19T00:59:08.476Z,69.20
2022-12-19T01:01:39.353Z,63.70
2022-12-19T01:07:02.153Z,61.80
2022-12-19T01:09:37.751Z,69.20
2022-12-19T01:12:07.464Z,71.90
2022-12-19T01:14:36.289Z,73.80
2022-12-19T01:17:04.707Z,72.30
2022-12-19T01:19:32.834Z,65.10
2022-12-19T01:22:01.120Z,62.90
2022-12-19T01:24:29.547Z,61.40
2022-12-19T01:26:57.777Z,68.30
2022-12-19T01:29:26.004Z,71.20
2022-12-19T01:31:55.696Z,73.30
2022-12-19T01:34:24.626Z,75.40
2022-12-19T01:36:52.945Z,67.00
2022-12-19T01:39:21.002Z,63.50
2022-12-19T01:41:50.969Z,62.00
2022-12-19T01:44:19.222Z,66.10
2022-12-19T01:46:50.910Z,70.30
2022-12-19T01:49:32.002Z,72.60
2022-12-19T01:52:10.958Z,75.00
2022-12-19T01:54:43.178Z,72.70
2022-12-19T01:57:14.679Z,65.30
2022-12-19T01:59:52.691Z,63.00
2022-12-19T02:02:24.759Z,61.60
2022-12-19T02:04:53.086Z,68.50
2022-12-19T02:07:24.031Z,71.60
2022-12-19T02:09:56.970Z,73.90
2022-12-19T02:12:38.680Z,74.50
2022-12-19T02:15:09.944Z,65.30
2022-12-19T02:18:20.235Z,62.70
2022-12-19T02:21:06.991Z,65.10
2022-12-19T02:24:23.603Z,70.90
2022-12-19T02:27:27.204Z,73.60
2022-12-19T02:30:09.512Z,75.70
2022-12-19T02:32:59.746Z,67.00
2022-12-19T02:35:28.857Z,63.50
2022-12-19T02:37:57.357Z,63.90
2022-12-19T02:41:02.339Z,70.30
2022-12-19T02:43:36.443Z,73.40
2022-12-19T02:46:06.910Z,75.40
2022-12-19T02:48:37.237Z,73.40
2022-12-19T02:51:06.262Z,65.60
2022-12-19T02:53:35.957Z,63.10
2022-12-19T02:56:16.485Z,64.40
2022-12-19T02:58:52.635Z,70.80
2022-12-19T03:01:45.796Z,73.60
2022-12-19T03:04:29.707Z,75.60
2022-12-19T03:07:13.007Z,70.30
2022-12-19T03:10:00.712Z,64.20
2022-12-19T03:12:36.972Z,62.60
2022-12-19T03:15:08.548Z,70.20
2022-12-19T03:17:40.353Z,73.40
2022-12-19T03:20:43.076Z,75.40
2022-12-19T03:23:12.204Z,73.30
2022-12-19T03:25:43.922Z,65.80
2022-12-19T03:28:25.026Z,63.60
2022-12-19T03:30:54.897Z,65.50
2022-12-19T03:33:25.160Z,71.20
2022-12-19T03:35:55.202Z,73.60
2022-12-19T03:38:23.924Z,75.60
2022-12-19T03:40:53.192Z,71.10
2022-12-19T03:43:23.781Z,65.10
2022-12-19T03:46:08.483Z,62.80
2022-12-19T03:48:47.644Z,67.00
2022-12-19T03:51:25.180Z,71.70
2022-12-19T03:54:07.541Z,74.30
2022-12-19T03:56:54.154Z,76.10
2022-12-19T03:59:45.383Z,67.90
2022-12-19T04:02:18.502Z,63.60
2022-12-19T04:04:55.198Z,64.90
2022-12-19T04:07:24.279Z,71.30
2022-12-19T04:09:54.433Z,73.60
2022-12-19T04:12:29.741Z,75.70
2022-12-19T04:14:58.079Z,73.50
2022-12-19T04:17:31.071Z,65.80
2022-12-19T04:20:06.543Z,63.30
2022-12-19T04:22:59.533Z,66.20
2022-12-19T04:25:35.447Z,71.50
2022-12-19T04:28:27.788Z,74.60
2022-12-19T04:30:56.211Z,75.80
2022-12-19T04:33:24.513Z,69.10
2022-12-19T04:35:52.695Z,64.10
2022-12-19T04:38:20.988Z,62.60
2022-12-19T04:40:49.337Z,68.90
2022-12-19T04:43:17.534Z,72.40
2022-12-19T04:45:45.902Z,74.70
2022-12-19T04:48:14.370Z,76.00
2022-12-19T04:50:42.576Z,76.10
2022-12-19T04:53:10.911Z,67.30
2022-12-19T04:55:39.697Z,64.50
2022-12-19T04:58:08.054Z,63.80
2022-12-19T05:00:36.615Z,70.90
2022-12-19T05:03:04.978Z,73.50
2022-12-19T05:05:33.354Z,75.70
2022-12-19T05:08:01.494Z,76.80
2022-12-19T05:10:29.928Z,69.20
2022-12-19T05:12:58.119Z,64.80
2022-12-19T05:15:26.435Z,63.20
2022-12-19T05:17:54.696Z,70.70
2022-12-19T05:20:22.813Z,73.70
2022-12-19T05:22:51.096Z,75.60
2022-12-19T05:25:19.334Z,77.10
2022-12-19T05:27:47.677Z,70.90
2022-12-19T05:30:16.088Z,65.30
2022-12-19T05:32:44.257Z,63.60
2022-12-19T05:35:12.493Z,69.40
2022-12-19T05:37:40.754Z,72.60
2022-12-19T05:40:09.616Z,75.20
2022-12-19T05:42:37.641Z,76.80
2022-12-19T05:45:06.281Z,73.20
2022-12-19T05:47:34.791Z,67.00
2022-12-19T05:50:03.075Z,64.00
2022-12-19T05:52:31.278Z,67.10
2022-12-19T05:54:59.733Z,72.00
2022-12-19T05:57:28.023Z,74.20
2022-12-19T05:59:56.134Z,76.30
2022-12-19T06:02:25.422Z,77.40
2022-12-19T06:04:54.131Z,69.20
2022-12-19T06:07:22.439Z,65.20
2022-12-19T06:09:50.773Z,63.70
2022-12-19T06:12:19.115Z,71.00
2022-12-19T06:14:47.411Z,74.20
2022-12-19T06:17:15.575Z,75.90
2022-12-19T06:19:44.871Z,77.90
2022-12-19T06:22:14.909Z,74.50
2022-12-19T06:24:43.119Z,67.20
2022-12-19T06:27:11.341Z,64.40
2022-12-19T06:29:39.880Z,67.30
2022-12-19T06:32:08.684Z,72.40
2022-12-19T06:35:03.217Z,74.90
2022-12-19T06:37:25.505Z,76.20
2022-12-19T06:39:53.799Z,78.10
2022-12-19T06:42:22.224Z,72.20
2022-12-19T06:44:52.247Z,66.30
2022-12-19T06:47:22.758Z,64.70
2022-12-19T06:49:51.009Z,70.70
2022-12-19T06:52:19.405Z,73.80
2022-12-19T06:54:47.981Z,75.70
2022-12-19T06:57:16.088Z,77.20
2022-12-19T06:59:44.378Z,76.90
2022-12-19T07:02:15.983Z,68.90
2022-12-19T07:04:51.580Z,66.50
2022-12-19T07:07:20.600Z,69.60
2022-12-19T07:09:49.537Z,75.40
2022-12-19T07:12:18.069Z,78.00
2022-12-19T07:14:51.642Z,81.20
2022-12-19T07:17:23.783Z,77.40
2022-12-19T07:19:54.094Z,71.80
2022-12-19T07:22:23.232Z,68.70
2022-12-19T07:24:51.784Z,70.80
2022-12-19T07:27:19.870Z,77.00
2022-12-19T07:29:48.319Z,80.00
2022-12-19T07:32:16.828Z,82.30
2022-12-19T07:34:44.970Z,77.30
2022-12-19T07:37:13.503Z,71.90
2022-12-19T07:39:41.786Z,68.00
2022-12-19T07:42:09.994Z,72.00
2022-12-19T07:44:40.385Z,74.90
2022-12-19T07:47:09.444Z,76.60
2022-12-19T07:49:37.688Z,78.30
2022-12-19T07:52:06.065Z,79.30
2022-12-19T07:54:34.406Z,73.00
2022-12-19T07:57:03.624Z,66.70
2022-12-19T07:59:38.705Z,68.40
2022-12-19T08:02:08.022Z,72.50
2022-12-19T08:04:36.395Z,74.70
2022-12-19T08:07:05.166Z,76.20
2022-12-19T08:09:33.477Z,77.50
2022-12-19T08:12:01.920Z,77.60
2022-12-19T08:14:30.425Z,68.30
2022-12-19T08:19:46.953Z,67.20
2022-12-19T08:22:15.192Z,72.50
2022-12-19T08:24:44.873Z,74.90
2022-12-19T08:27:13.504Z,76.40
2022-12-19T08:29:41.819Z,72.10
2022-12-19T08:32:13.217Z,66.40
2022-12-19T08:34:44.089Z,64.50
2022-12-19T08:37:13.385Z,71.00
2022-12-19T08:39:41.685Z,74.00
2022-12-19T08:42:09.877Z,76.10
2022-12-19T08:44:38.360Z,77.60
2022-12-19T08:47:06.917Z,78.80
2022-12-19T08:49:35.342Z,72.20
2022-12-19T08:52:03.936Z,67.00
2022-12-19T08:54:32.122Z,65.10
2022-12-19T08:57:00.521Z,71.00
2022-12-19T08:59:31.546Z,74.20
2022-12-19T09:02:01.529Z,76.30
2022-12-19T09:06:02.452Z,77.60
2022-12-19T09:07:19.727Z,74.70
2022-12-19T09:09:48.201Z,67.20
2022-12-19T09:12:17.238Z,65.30
2022-12-19T09:14:45.705Z,69.30
2022-12-19T09:17:14.734Z,73.70
2022-12-19T09:19:47.939Z,75.80
2022-12-19T09:22:17.147Z,77.00
2022-12-19T09:24:46.098Z,74.50
2022-12-19T09:27:14.710Z,67.70
2022-12-19T09:29:43.084Z,65.20
2022-12-19T09:32:11.569Z,69.20
2022-12-19T09:34:39.921Z,73.50
2022-12-19T09:37:16.226Z,75.70
2022-12-19T09:39:49.687Z,77.30
2022-12-19T09:43:07.725Z,78.50
2022-12-19T09:45:46.701Z,70.30
2022-12-19T09:48:24.688Z,66.20
2022-12-19T09:51:10.285Z,64.50
2022-12-19T09:53:54.521Z,71.00
2022-12-19T09:56:26.949Z,74.60
2022-12-19T09:59:03.897Z,77.20
2022-12-19T10:01:40.560Z,77.90
2022-12-19T10:04:14.705Z,73.90
2022-12-19T10:07:21.974Z,67.90
2022-12-19T10:11:08.285Z,65.50
2022-12-19T10:12:51.310Z,66.10
2022-12-19T10:15:42.911Z,72.80
2022-12-19T10:18:21.502Z,76.10
2022-12-19T10:21:06.750Z,78.50
2022-12-19T10:23:50.444Z,70.40
2022-12-19T10:26:30.244Z,66.20
2022-12-19T10:29:01.827Z,64.70
2022-12-19T10:32:06.457Z,70.40
2022-12-19T10:34:41.136Z,74.50
2022-12-19T10:37:37.680Z,76.90
2022-12-19T10:40:35.036Z,78.70
2022-12-19T10:43:32.783Z,69.10
2022-12-19T10:46:12.127Z,65.50
2022-12-19T10:48:40.548Z,64.70
2022-12-19T10:51:14.449Z,71.10
2022-12-19T10:53:57.755Z,74.00
2022-12-19T10:56:36.863Z,75.70
2022-12-19T10:59:17.861Z,77.00
2022-12-19T11:01:54.754Z,72.00
2022-12-19T11:04:34.197Z,66.10
2022-12-19T11:07:07.825Z,63.90
2022-12-19T11:09:42.641Z,66.10
2022-12-19T11:13:30.974Z,71.50
2022-12-19T11:19:42.368Z,73.80
2022-12-19T11:29:14.902Z,76.10
2022-12-19T11:29:40.543Z,74.60
2022-12-19T11:30:05.578Z,64.70
2022-12-19T11:30:47.444Z,67.10
2022-12-19T11:32:42.220Z,72.10
2022-12-19T11:35:36.961Z,75.00
2022-12-19T11:38:07.143Z,77.10
2022-12-19T11:41:01.389Z,69.80
2022-12-19T11:43:46.432Z,66.20
2022-12-19T11:46:39.350Z,64.00
2022-12-19T11:49:25.933Z,69.60
2022-12-19T11:53:02.415Z,73.20
2022-12-19T11:55:09.284Z,75.70
2022-12-19T11:57:40.490Z,76.80
2022-12-19T12:00:14.654Z,68.40
2022-12-19T12:02:48.983Z,65.10
2022-12-19T12:05:46.138Z,64.00
2022-12-19T12:09:41.876Z,70.50
2022-12-19T12:17:35.830Z,74.10
2022-12-19T12:25:53.663Z,77.00
2022-12-19T12:30:52.343Z,71.70
2022-12-19T12:31:15.426Z,65.90
2022-12-19T12:31:18.923Z,67.70
2022-12-19T12:31:40.506Z,63.90
2022-12-19T12:35:15.251Z,72.50
2022-12-19T12:35:31.819Z,75.50
2022-12-19T12:39:50.280Z,67.70
2022-12-19T12:42:54.347Z,64.50
2022-12-19T12:45:49.081Z,63.00
2022-12-19T12:48:29.447Z,69.40
2022-12-19T12:50:59.543Z,73.00
2022-12-19T12:53:36.139Z,75.10
2022-12-19T12:56:07.167Z,76.30
2022-12-19T12:58:48.040Z,67.90
2022-12-19T13:01:20.552Z,64.40
2022-12-19T13:04:21.438Z,63.20
2022-12-19T13:06:53.131Z,67.30
2022-12-19T13:09:25.341Z,72.40
2022-12-19T13:12:29.184Z,74.60
2022-12-19T13:15:23.493Z,76.50
2022-12-19T13:17:51.819Z,68.30
2022-12-19T13:20:20.412Z,64.80
2022-12-19T13:22:59.001Z,63.70
2022-12-19T13:25:27.287Z,62.10
2022-12-19T13:28:02.699Z,69.50
2022-12-19T13:31:11.959Z,72.80
2022-12-19T13:39:55.161Z,75.20
2022-12-19T13:41:00.760Z,65.70
2022-12-19T13:43:39.553Z,63.30
2022-12-19T13:46:19.763Z,62.00
2022-12-19T13:48:53.438Z,67.90
2022-12-19T13:51:21.949Z,71.40
2022-12-19T13:53:59.293Z,73.90
2022-12-19T13:56:31.735Z,74.70
2022-12-19T13:59:03.847Z,67.00
2022-12-19T14:01:36.266Z,63.50
2022-12-19T14:04:26.025Z,62.40
2022-12-19T14:07:07.492Z,61.10
2022-12-19T14:11:34.424Z,69.10
2022-12-19T14:14:00.861Z,72.00
2022-12-19T14:15:44.767Z,74.20
2022-12-19T14:18:43.096Z,71.80
2022-12-19T14:22:04.747Z,65.20
2022-12-19T14:24:16.234Z,62.90
2022-12-19T14:28:20.292Z,61.50
2022-12-19T14:30:28.525Z,60.50
2022-12-19T14:33:41.043Z,68.80
2022-12-19T14:36:09.640Z,71.90
2022-12-19T14:39:22.154Z,74.10
2022-12-19T14:41:46.557Z,68.30
2022-12-19T14:53:27.802Z,63.20
2022-12-19T14:53:52.475Z,61.90
2022-12-19T14:54:10.263Z,60.80
2022-12-19T14:54:37.233Z,68.90
2022-12-19T14:56:45.141Z,71.90
2022-12-19T14:58:58.847Z,74.90
2022-12-19T15:01:30.115Z,71.30
2022-12-19T15:04:48.774Z,65.00
2022-12-19T15:07:09.127Z,61.50
2022-12-19T15:10:59.989Z,67.50
2022-12-19T15:14:46.691Z,71.30
2022-12-19T15:16:04.994Z,74.10
2022-12-19T15:18:33.460Z,68.80
2022-12-19T15:21:04.288Z,62.50
2022-12-19T15:23:32.642Z,60.10
2022-12-19T15:26:12.668Z,66.90
2022-12-19T15:28:59.753Z,70.50
2022-12-19T15:31:39.835Z,73.00
2022-12-19T15:34:40.081Z,73.90
2022-12-19T15:37:17.597Z,64.30
2022-12-19T15:39:46.498Z,59.40
2022-12-19T15:42:23.345Z,65.80
2022-12-19T15:44:53.956Z,69.20
2022-12-19T15:47:37.274Z,71.80
2022-12-19T15:50:31.855Z,73.70
2022-12-19T15:53:02.936Z,67.00
2022-12-19T15:55:31.740Z,61.60
2022-12-19T15:58:00.991Z,64.40
2022-12-19T16:00:34.541Z,69.30
2022-12-19T16:05:51.322Z,73.80
2022-12-19T16:08:23.050Z,70.70
2022-12-19T16:11:01.411Z,63.50
2022-12-19T16:13:32.683Z,62.00
2022-12-19T16:16:01.401Z,67.80
2022-12-19T16:18:29.462Z,70.40
2022-12-19T16:20:57.784Z,71.40
2022-12-19T16:23:26.225Z,72.20
2022-12-19T16:25:54.546Z,70.70
2022-12-19T16:28:28.942Z,63.00
2022-12-19T16:30:58.846Z,60.40
2022-12-19T16:33:29.715Z,63.70
2022-12-19T16:36:07.201Z,68.40
2022-12-19T16:38:36.835Z,71.00
2022-12-19T16:41:05.441Z,72.80
2022-12-19T16:43:36.607Z,72.80
2022-12-19T16:46:07.043Z,64.60
2022-12-19T16:48:35.994Z,61.10
2022-12-19T16:51:04.966Z,60.10
2022-12-19T16:53:33.478Z,67.70
2022-12-19T16:56:02.744Z,71.00
2022-12-19T16:58:31.004Z,73.20
2022-12-19T17:00:59.293Z,74.40
2022-12-19T17:03:36.457Z,67.60
2022-12-19T17:06:05.331Z,62.80
2022-12-19T17:08:33.136Z,61.10
2022-12-19T17:11:01.483Z,68.10
2022-12-19T17:13:30.086Z,71.20
2022-12-19T17:15:59.290Z,73.40
2022-12-19T17:18:37.818Z,75.00
2022-12-19T17:21:06.375Z,71.40
2022-12-19T17:23:34.884Z,64.50
2022-12-19T17:26:03.078Z,62.30
2022-12-19T17:28:31.477Z,61.80
2022-12-19T17:31:03.224Z,69.10
2022-12-19T17:33:40.011Z,72.20
2022-12-19T17:36:11.889Z,74.00
2022-12-19T17:38:43.228Z,75.40
2022-12-19T17:41:16.303Z,69.00
2022-12-19T17:43:45.094Z,64.20
2022-12-19T17:46:21.717Z,62.20
2022-12-19T17:48:52.322Z,62.60
2022-12-19T17:51:22.574Z,69.20
2022-12-19T17:53:50.985Z,72.40
2022-12-19T17:56:20.681Z,74.50
2022-12-19T17:58:50.075Z,70.90
2022-12-19T18:01:23.808Z,64.80
2022-12-19T18:03:54.211Z,62.60
2022-12-19T18:06:22.977Z,63.50
2022-12-19T18:08:51.179Z,69.40
2022-12-19T18:11:26.892Z,72.00
2022-12-19T18:13:55.611Z,74.10
2022-12-19T18:16:25.515Z,71.50
2022-12-19T18:18:53.879Z,65.10
2022-12-19T18:21:23.328Z,62.50
2022-12-19T18:23:52.027Z,61.10
2022-12-19T18:26:20.376Z,67.10
2022-12-19T18:28:48.979Z,70.40
2022-12-19T18:31:27.013Z,72.40
2022-12-19T18:33:59.459Z,73.80
2022-12-19T18:36:40.031Z,74.60
2022-12-19T18:39:20.541Z,66.10
2022-12-19T18:41:49.477Z,62.70
2022-12-19T18:44:18.282Z,61.30
2022-12-19T18:46:49.282Z,69.20
2022-12-19T18:49:18.753Z,72.30
2022-12-19T18:51:47.208Z,74.20
2022-12-19T18:54:21.281Z,72.80
2022-12-19T18:56:50.040Z,65.40
2022-12-19T18:59:18.387Z,62.40
2022-12-19T19:01:47.729Z,62.70
2022-12-19T19:04:18.268Z,69.50
2022-12-19T19:06:51.458Z,72.30
2022-12-19T19:09:21.882Z,74.20
2022-12-19T19:11:58.368Z,70.60
2022-12-19T19:14:26.807Z,64.20
2022-12-19T19:16:55.212Z,62.50
2022-12-19T19:19:23.787Z,64.70
2022-12-19T19:21:52.200Z,70.10
2022-12-19T19:24:23.264Z,72.70
2022-12-19T19:26:51.676Z,74.30
2022-12-19T19:29:20.034Z,75.50
2022-12-19T19:31:51.669Z,68.10
2022-12-19T19:34:26.132Z,64.10
2022-12-19T19:36:58.047Z,62.30
2022-12-19T19:39:26.716Z,64.30
2022-12-19T19:41:54.897Z,70.30
2022-12-19T19:44:23.551Z,72.70
2022-12-19T19:46:51.621Z,74.50
2022-12-19T19:49:21.559Z,69.20
2022-12-19T19:51:50.105Z,63.90
2022-12-19T19:54:18.388Z,62.30
2022-12-19T19:56:46.764Z,68.10
2022-12-19T19:59:15.307Z,71.50
2022-12-19T20:01:43.708Z,73.60
2022-12-19T20:04:12.392Z,75.30
2022-12-19T20:06:41.001Z,71.60
2022-12-19T20:09:09.279Z,64.70
2022-12-19T20:11:37.694Z,62.90
2022-12-19T20:14:06.258Z,65.60
2022-12-19T20:16:35.502Z,70.30
2022-12-19T20:19:04.136Z,72.70
2022-12-19T20:21:32.570Z,74.50
2022-12-19T20:24:01.014Z,72.90
2022-12-19T20:26:29.374Z,64.90
2022-12-19T20:28:57.932Z,62.80
2022-12-19T20:31:26.696Z,66.40
2022-12-19T20:33:55.649Z,72.00
2022-12-19T20:36:24.867Z,74.30
2022-12-19T20:38:53.150Z,75.60
2022-12-19T20:41:22.005Z,74.20
2022-12-19T20:43:50.481Z,66.50
2022-12-19T20:46:20.552Z,63.60
2022-12-19T20:48:49.617Z,63.20
2022-12-19T20:51:19.870Z,69.80
2022-12-19T20:53:49.254Z,75.10
2022-12-19T20:56:19.583Z,76.70
2022-12-19T20:58:48.049Z,77.00
2022-12-19T21:01:19.625Z,68.30
2022-12-19T21:03:48.545Z,66.20
2022-12-19T21:06:20.088Z,64.20
2022-12-19T21:08:49.092Z,71.80
2022-12-19T21:11:17.389Z,75.20
2022-12-19T21:13:45.990Z,77.30
2022-12-19T21:16:17.731Z,78.30
2022-12-19T21:18:47.625Z,69.50
2022-12-19T21:21:25.729Z,64.40
2022-12-19T21:23:55.088Z,65.70
2022-12-19T21:26:25.827Z,70.30
2022-12-19T21:28:54.966Z,72.40
2022-12-19T21:31:26.401Z,74.60
2022-12-19T21:33:56.727Z,75.80
2022-12-19T21:36:26.955Z,67.80
2022-12-19T21:38:58.325Z,64.00
2022-12-19T21:41:26.848Z,62.60
2022-12-19T21:43:56.327Z,69.30
2022-12-19T21:46:26.908Z,72.60
2022-12-19T21:48:57.096Z,74.80
2022-12-19T21:51:28.173Z,76.40
2022-12-19T21:54:01.453Z,73.40
2022-12-19T21:56:38.163Z,66.50
2022-12-19T21:59:15.471Z,64.10
2022-12-19T22:01:45.322Z,65.80
2022-12-19T22:04:17.483Z,71.60
2022-12-19T22:06:46.138Z,74.40
2022-12-19T22:09:16.954Z,76.10
2022-12-19T22:11:46.696Z,71.90
2022-12-19T22:14:16.544Z,66.00
2022-12-19T22:16:45.300Z,64.30
2022-12-19T22:19:16.528Z,66.00
2022-12-19T22:21:45.989Z,72.50
2022-12-19T22:24:15.791Z,74.70
2022-12-19T22:26:44.862Z,76.60
2022-12-19T22:29:16.551Z,73.10
2022-12-19T22:31:45.701Z,66.70
2022-12-19T22:34:19.936Z,64.80
2022-12-19T22:36:49.432Z,65.80
2022-12-19T22:39:20.981Z,72.10
2022-12-19T22:41:49.948Z,74.20
2022-12-19T22:44:21.458Z,76.40
2022-12-19T22:46:50.943Z,77.20
2022-12-19T22:49:19.327Z,68.70
2022-12-19T22:51:47.598Z,64.80
2022-12-19T22:54:16.203Z,63.60
2022-12-19T22:56:44.695Z,69.60
2022-12-19T22:59:13.391Z,72.80
2022-12-19T23:01:43.914Z,75.20
2022-12-19T23:04:15.434Z,76.80
2022-12-19T23:06:44.615Z,75.80
2022-12-19T23:09:15.754Z,67.70
2022-12-19T23:11:49.908Z,65.10
2022-12-19T23:14:21.224Z,64.40
2022-12-19T23:16:49.853Z,71.70
2022-12-19T23:19:19.032Z,74.70
2022-12-19T23:21:47.442Z,76.80
2022-12-19T23:24:15.748Z,77.30
2022-12-19T23:26:44.557Z,68.80
2022-12-19T23:29:15.485Z,65.80
2022-12-19T23:31:46.288Z,64.20
2022-12-19T23:34:15.636Z,70.90
2022-12-19T23:39:32.441Z,76.40
2022-12-19T23:42:00.817Z,77.90
2022-12-19T23:44:29.375Z,69.40
2022-12-19T23:47:03.080Z,65.80
2022-12-19T23:49:33.241Z,64.20
2022-12-19T23:52:01.961Z,70.70
2022-12-19T23:54:29.974Z,74.50
2022-12-19T23:56:58.210Z,76.20
2022-12-19T23:59:26.806Z,77.60
